CFG116 EDDF-GCLP
Flight info
| Callsign | CFG116 |
|---|---|
| Flight time | 4h 29m |
| Altitude | 33000 |
| Route | SOBRA2L/18 SOBRA Y180 DIK UN857 TOLVU DCT RAPOR DCT GIMER DCT AHVEC UN857 DISAK DCT ARKIP DCT ARNAV DCT LMG DCT UVELI DCT OSMOB DCT VAVIX/N0393F210 DCT BTZ DCT URUNA/N0462F330 DCT SSN DCT VRA DCT NEA L14 ADINO DCT ELVAR DCT BAROK/N0454F350 UN873 SAMAR |
| Aircraft | A321/M-SDE3FGHIRWY/LB1 |
Departure
| Time | 2026-05-05 10:56 |
|---|---|
| Airport | Frankfurt Main Airport (EDDF) |
Arrival
| Time | 2026-05-05 15:25 |
|---|---|
| Airport | Gran Canaria Airport (GCLP) |
| Time | Latitude | Longitude | Altitude | Speed | Heading |
|---|---|---|---|---|---|
| 2026-05-05 10:11 | 50.04885 | 8.57973 | 360 ft | 0 kts | 12° |
| 2026-05-05 10:37 | 50.04883 | 8.57972 | 359 ft | 1 kts | 12° |
| 2026-05-05 10:37 | 50.04866 | 8.57966 | 363 ft | 3 kts | 12° |
| 2026-05-05 10:37 | 50.04851 | 8.57961 | 362 ft | 3 kts | 24° |
| 2026-05-05 10:38 | 50.04837 | 8.57946 | 365 ft | 3 kts | 65° |
| 2026-05-05 10:38 | 50.04832 | 8.57919 | 364 ft | 3 kts | 94° |
| 2026-05-05 10:38 | 50.04835 | 8.57888 | 363 ft | 3 kts | 106° |
| 2026-05-05 10:38 | 50.04841 | 8.57858 | 362 ft | 3 kts | 111° |
| 2026-05-05 10:39 | 50.04849 | 8.57831 | 360 ft | 2 kts | 114° |
| 2026-05-05 10:39 | 50.04850 | 8.57826 | 359 ft | 0 kts | 113° |
| 2026-05-05 10:43 | 50.04841 | 8.57857 | 362 ft | 5 kts | 118° |
| 2026-05-05 10:44 | 50.04823 | 8.57886 | 366 ft | 3 kts | 141° |
| 2026-05-05 10:44 | 50.04799 | 8.57906 | 357 ft | 5 kts | 157° |
| 2026-05-05 10:44 | 50.04766 | 8.57923 | 360 ft | 6 kts | 168° |
| 2026-05-05 10:44 | 50.04731 | 8.57912 | 357 ft | 4 kts | 203° |
| 2026-05-05 10:45 | 50.04705 | 8.57879 | 357 ft | 5 kts | 232° |
| 2026-05-05 10:45 | 50.04692 | 8.57835 | 362 ft | 5 kts | 249° |
| 2026-05-05 10:45 | 50.04672 | 8.57753 | 361 ft | 9 kts | 250° |
| 2026-05-05 10:45 | 50.04654 | 8.57674 | 359 ft | 7 kts | 250° |
| 2026-05-05 10:46 | 50.04639 | 8.57611 | 360 ft | 6 kts | 249° |
| 2026-05-05 10:46 | 50.04622 | 8.57542 | 359 ft | 10 kts | 249° |
| 2026-05-05 10:46 | 50.04599 | 8.57446 | 363 ft | 9 kts | 250° |
| 2026-05-05 10:46 | 50.04576 | 8.57348 | 359 ft | 9 kts | 249° |
| 2026-05-05 10:47 | 50.04551 | 8.57246 | 364 ft | 11 kts | 250° |
| 2026-05-05 10:47 | 50.04515 | 8.57098 | 358 ft | 19 kts | 249° |
| 2026-05-05 10:47 | 50.04478 | 8.56940 | 363 ft | 0 kts | 250° |
| 2026-05-05 10:48 | 50.04474 | 8.56923 | 363 ft | 5 kts | 250° |
| 2026-05-05 10:48 | 50.04445 | 8.56802 | 361 ft | 16 kts | 250° |
| 2026-05-05 10:48 | 50.04406 | 8.56637 | 363 ft | 16 kts | 249° |
| 2026-05-05 10:48 | 50.04368 | 8.56480 | 363 ft | 15 kts | 250° |
| 2026-05-05 10:49 | 50.04333 | 8.56332 | 358 ft | 14 kts | 250° |
| 2026-05-05 10:49 | 50.04300 | 8.56195 | 357 ft | 13 kts | 249° |
| 2026-05-05 10:49 | 50.04264 | 8.56045 | 358 ft | 18 kts | 250° |
| 2026-05-05 10:49 | 50.04222 | 8.55865 | 361 ft | 17 kts | 248° |
| 2026-05-05 10:50 | 50.04181 | 8.55694 | 360 ft | 16 kts | 249° |
| 2026-05-05 10:50 | 50.04142 | 8.55533 | 355 ft | 15 kts | 250° |
| 2026-05-05 10:50 | 50.04107 | 8.55386 | 358 ft | 14 kts | 250° |
| 2026-05-05 10:50 | 50.04078 | 8.55263 | 360 ft | 11 kts | 250° |
| 2026-05-05 10:51 | 50.04054 | 8.55164 | 356 ft | 10 kts | 249° |
| 2026-05-05 10:51 | 50.04020 | 8.55025 | 359 ft | 15 kts | 250° |
| 2026-05-05 10:51 | 50.03986 | 8.54880 | 354 ft | 14 kts | 250° |
| 2026-05-05 10:51 | 50.03949 | 8.54728 | 357 ft | 18 kts | 249° |
| 2026-05-05 10:52 | 50.03899 | 8.54519 | 350 ft | 22 kts | 250° |
| 2026-05-05 10:52 | 50.03833 | 8.54307 | 355 ft | 21 kts | 233° |
| 2026-05-05 10:52 | 50.03773 | 8.54109 | 351 ft | 20 kts | 249° |
| 2026-05-05 10:52 | 50.03726 | 8.53914 | 349 ft | 19 kts | 249° |
| 2026-05-05 10:53 | 50.03681 | 8.53728 | 346 ft | 18 kts | 249° |
| 2026-05-05 10:53 | 50.03637 | 8.53554 | 339 ft | 17 kts | 247° |
| 2026-05-05 10:53 | 50.03597 | 8.53385 | 337 ft | 16 kts | 250° |
| 2026-05-05 10:53 | 50.03559 | 8.53226 | 335 ft | 15 kts | 250° |
| 2026-05-05 10:54 | 50.03522 | 8.53075 | 337 ft | 14 kts | 249° |
| 2026-05-05 10:54 | 50.03488 | 8.52932 | 333 ft | 14 kts | 249° |
| 2026-05-05 10:54 | 50.03451 | 8.52802 | 335 ft | 13 kts | 245° |
| 2026-05-05 10:54 | 50.03421 | 8.52678 | 333 ft | 11 kts | 249° |
| 2026-05-05 10:55 | 50.03384 | 8.52599 | 333 ft | 7 kts | 207° |
| 2026-05-05 10:55 | 50.03341 | 8.52594 | 335 ft | 5 kts | 180° |
| 2026-05-05 10:55 | 50.03298 | 8.52594 | 332 ft | 13 kts | 180° |
| 2026-05-05 10:55 | 50.02979 | 8.52598 | 335 ft | 79 kts | 180° |
| 2026-05-05 10:56 | 50.02230 | 8.52605 | 335 ft | 134 kts | 180° |
| 2026-05-05 10:56 | 50.01153 | 8.52615 | 333 ft | 174 kts | 180° |
| 2026-05-05 10:56 | 49.99843 | 8.52619 | 494 ft | 194 kts | 180° |
| 2026-05-05 10:56 | 49.98480 | 8.52615 | 1037 ft | 200 kts | 180° |
| 2026-05-05 10:57 | 49.97072 | 8.52634 | 1555 ft | 204 kts | 178° |
| 2026-05-05 10:57 | 49.95601 | 8.52752 | 1743 ft | 220 kts | 176° |
| 2026-05-05 10:57 | 49.94037 | 8.52912 | 2155 ft | 227 kts | 176° |
| 2026-05-05 10:57 | 49.92448 | 8.53069 | 2709 ft | 229 kts | 176° |
| 2026-05-05 10:58 | 49.90870 | 8.53211 | 3228 ft | 232 kts | 177° |
| 2026-05-05 10:58 | 49.89261 | 8.53340 | 3886 ft | 232 kts | 178° |
| 2026-05-05 10:58 | 49.87647 | 8.53377 | 4522 ft | 232 kts | 187° |
| 2026-05-05 10:58 | 49.86042 | 8.52792 | 4865 ft | 248 kts | 200° |
| 2026-05-05 10:59 | 49.84361 | 8.51835 | 5220 ft | 263 kts | 200° |
| 2026-05-05 10:59 | 49.82633 | 8.50852 | 5845 ft | 266 kts | 200° |
| 2026-05-05 10:59 | 49.80886 | 8.49857 | 6506 ft | 269 kts | 200° |
| 2026-05-05 10:59 | 49.79121 | 8.48857 | 7145 ft | 271 kts | 200° |
| 2026-05-05 11:00 | 49.77462 | 8.47471 | 7769 ft | 275 kts | 220° |
| 2026-05-05 11:00 | 49.76305 | 8.45113 | 8436 ft | 280 kts | 246° |
| 2026-05-05 11:00 | 49.75919 | 8.42151 | 9121 ft | 287 kts | 271° |
| 2026-05-05 11:00 | 49.76293 | 8.39082 | 9787 ft | 292 kts | 282° |
| 2026-05-05 11:01 | 49.76800 | 8.35989 | 10113 ft | 306 kts | 282° |
| 2026-05-05 11:01 | 49.77339 | 8.32686 | 10249 ft | 325 kts | 282° |
| 2026-05-05 11:01 | 49.77903 | 8.29199 | 10375 ft | 344 kts | 282° |
| 2026-05-05 11:01 | 49.78497 | 8.25517 | 10501 ft | 361 kts | 282° |
| 2026-05-05 11:02 | 49.79115 | 8.21665 | 10662 ft | 376 kts | 282° |
| 2026-05-05 11:02 | 49.79745 | 8.17749 | 11115 ft | 382 kts | 282° |
| 2026-05-05 11:02 | 49.80388 | 8.13745 | 11680 ft | 385 kts | 282° |
| 2026-05-05 11:02 | 49.81034 | 8.09704 | 12237 ft | 388 kts | 282° |
| 2026-05-05 11:03 | 49.81683 | 8.05626 | 12758 ft | 391 kts | 282° |
| 2026-05-05 11:03 | 49.82335 | 8.01526 | 13292 ft | 393 kts | 282° |
| 2026-05-05 11:03 | 49.82989 | 7.97398 | 13811 ft | 396 kts | 282° |
| 2026-05-05 11:03 | 49.83643 | 7.93238 | 14281 ft | 399 kts | 282° |
| 2026-05-05 11:04 | 49.84299 | 7.89045 | 14741 ft | 401 kts | 281° |
| 2026-05-05 11:04 | 49.84953 | 7.84830 | 15174 ft | 404 kts | 281° |
| 2026-05-05 11:04 | 49.85608 | 7.80588 | 15608 ft | 406 kts | 281° |
| 2026-05-05 11:04 | 49.86270 | 7.76316 | 16043 ft | 409 kts | 281° |
| 2026-05-05 11:05 | 49.86945 | 7.72023 | 16476 ft | 412 kts | 282° |
| 2026-05-05 11:05 | 49.87627 | 7.67701 | 16894 ft | 414 kts | 281° |
| 2026-05-05 11:05 | 49.88313 | 7.63343 | 17313 ft | 417 kts | 281° |
| 2026-05-05 11:05 | 49.88997 | 7.58958 | 17736 ft | 420 kts | 281° |
| 2026-05-05 11:06 | 49.89682 | 7.54538 | 18141 ft | 422 kts | 281° |
| 2026-05-05 11:06 | 49.90354 | 7.50158 | 18485 ft | 425 kts | 281° |
| 2026-05-05 11:06 | 49.91043 | 7.45628 | 18844 ft | 427 kts | 281° |
| 2026-05-05 11:06 | 49.91726 | 7.41125 | 19201 ft | 429 kts | 281° |
| 2026-05-05 11:07 | 49.92410 | 7.36613 | 19573 ft | 431 kts | 281° |
| 2026-05-05 11:07 | 49.93090 | 7.32128 | 19925 ft | 433 kts | 281° |
| 2026-05-05 11:07 | 49.93781 | 7.27564 | 20295 ft | 436 kts | 281° |
| 2026-05-05 11:07 | 49.94475 | 7.22975 | 20640 ft | 438 kts | 281° |
| 2026-05-05 11:08 | 49.95172 | 7.18356 | 20979 ft | 440 kts | 281° |
| 2026-05-05 11:08 | 49.95870 | 7.13717 | 21303 ft | 443 kts | 281° |
| 2026-05-05 11:08 | 49.96569 | 7.09045 | 21622 ft | 445 kts | 281° |
| 2026-05-05 11:08 | 49.97268 | 7.04353 | 21956 ft | 447 kts | 281° |
| 2026-05-05 11:09 | 49.97967 | 6.99646 | 22269 ft | 449 kts | 281° |
| 2026-05-05 11:09 | 49.98669 | 6.94907 | 22571 ft | 451 kts | 280° |
| 2026-05-05 11:09 | 49.99162 | 6.90093 | 22878 ft | 451 kts | 272° |
| 2026-05-05 11:09 | 49.99188 | 6.85234 | 23193 ft | 451 kts | 265° |
| 2026-05-05 11:10 | 49.99035 | 6.80349 | 23494 ft | 453 kts | 265° |
| 2026-05-05 11:10 | 49.98886 | 6.75454 | 23766 ft | 455 kts | 265° |
| 2026-05-05 11:10 | 49.98738 | 6.70539 | 24040 ft | 456 kts | 265° |
| 2026-05-05 11:10 | 49.98590 | 6.65669 | 24315 ft | 457 kts | 265° |
| 2026-05-05 11:11 | 49.98419 | 6.60734 | 24603 ft | 458 kts | 262° |
| 2026-05-05 11:11 | 49.97896 | 6.55865 | 24889 ft | 456 kts | 253° |
| 2026-05-05 11:11 | 49.96914 | 6.51202 | 25160 ft | 454 kts | 245° |
| 2026-05-05 11:11 | 49.95654 | 6.46698 | 25436 ft | 455 kts | 244° |
| 2026-05-05 11:12 | 49.94390 | 6.42195 | 25797 ft | 454 kts | 244° |
| 2026-05-05 11:12 | 49.93132 | 6.37715 | 26215 ft | 452 kts | 244° |
| 2026-05-05 11:12 | 49.91878 | 6.33255 | 26631 ft | 449 kts | 244° |
| 2026-05-05 11:12 | 49.90633 | 6.28830 | 27047 ft | 447 kts | 244° |
| 2026-05-05 11:13 | 49.89374 | 6.24426 | 27461 ft | 445 kts | 243° |
| 2026-05-05 11:13 | 49.88107 | 6.20055 | 27874 ft | 443 kts | 243° |
| 2026-05-05 11:13 | 49.86862 | 6.15692 | 28277 ft | 441 kts | 242° |
| 2026-05-05 11:13 | 49.85423 | 6.11528 | 28675 ft | 436 kts | 234° |
| 2026-05-05 11:14 | 49.83705 | 6.07688 | 29055 ft | 433 kts | 232° |
| 2026-05-05 11:14 | 49.81963 | 6.03889 | 29449 ft | 431 kts | 232° |
| 2026-05-05 11:14 | 49.80227 | 6.00112 | 29826 ft | 430 kts | 231° |
| 2026-05-05 11:14 | 49.78493 | 5.96352 | 30143 ft | 429 kts | 231° |
| 2026-05-05 11:15 | 49.76763 | 5.92608 | 30458 ft | 427 kts | 231° |
| 2026-05-05 11:15 | 49.75063 | 5.88840 | 30750 ft | 427 kts | 235° |
| 2026-05-05 11:15 | 49.73684 | 5.84756 | 31022 ft | 430 kts | 244° |
| 2026-05-05 11:15 | 49.72990 | 5.81881 | 31234 ft | 432 kts | 246° |
| 2026-05-05 11:16 | 49.71990 | 5.77515 | 31524 ft | 430 kts | 246° |
| 2026-05-05 11:16 | 49.70982 | 5.73157 | 31807 ft | 430 kts | 246° |
| 2026-05-05 11:16 | 49.69973 | 5.68826 | 32088 ft | 429 kts | 246° |
| 2026-05-05 11:16 | 49.68962 | 5.64501 | 32376 ft | 428 kts | 246° |
| 2026-05-05 11:17 | 49.67948 | 5.60181 | 32669 ft | 427 kts | 245° |
| 2026-05-05 11:17 | 49.66934 | 5.55871 | 32829 ft | 427 kts | 245° |
| 2026-05-05 11:17 | 49.65924 | 5.51569 | 32857 ft | 427 kts | 245° |
| 2026-05-05 11:18 | 49.63898 | 5.42961 | 32854 ft | 427 kts | 245° |
| 2026-05-05 11:18 | 49.61880 | 5.34342 | 32856 ft | 428 kts | 246° |
| 2026-05-05 11:19 | 49.59995 | 5.25626 | 32858 ft | 429 kts | 248° |
| 2026-05-05 11:19 | 49.58223 | 5.16823 | 32857 ft | 431 kts | 250° |
| 2026-05-05 11:20 | 49.56690 | 5.07935 | 32863 ft | 433 kts | 251° |
| 2026-05-05 11:20 | 49.55179 | 4.98960 | 32863 ft | 433 kts | 250° |
| 2026-05-05 11:21 | 49.53604 | 4.90015 | 32856 ft | 433 kts | 250° |
| 2026-05-05 11:21 | 49.51988 | 4.81061 | 32853 ft | 435 kts | 250° |
| 2026-05-05 11:22 | 49.50357 | 4.72091 | 32855 ft | 436 kts | 250° |
| 2026-05-05 11:22 | 49.48722 | 4.63110 | 32855 ft | 437 kts | 250° |
| 2026-05-05 11:23 | 49.47084 | 4.54105 | 32856 ft | 437 kts | 250° |
| 2026-05-05 11:23 | 49.45437 | 4.45105 | 32863 ft | 438 kts | 250° |
| 2026-05-05 11:24 | 49.43769 | 4.36070 | 32860 ft | 440 kts | 250° |
| 2026-05-05 11:24 | 49.42105 | 4.27091 | 32862 ft | 440 kts | 250° |
| 2026-05-05 11:25 | 49.40425 | 4.18044 | 32859 ft | 441 kts | 250° |
| 2026-05-05 11:25 | 49.38725 | 4.08987 | 32864 ft | 441 kts | 250° |
| 2026-05-05 11:26 | 49.36981 | 3.99953 | 32861 ft | 440 kts | 246° |
| 2026-05-05 11:26 | 49.34134 | 3.91776 | 32866 ft | 433 kts | 232° |
| 2026-05-05 11:27 | 49.30780 | 3.84090 | 32862 ft | 434 kts | 233° |
| 2026-05-05 11:27 | 49.27439 | 3.76394 | 32863 ft | 434 kts | 233° |
| 2026-05-05 11:28 | 49.24086 | 3.68695 | 32860 ft | 434 kts | 233° |
| 2026-05-05 11:28 | 49.20726 | 3.61025 | 32849 ft | 434 kts | 233° |
| 2026-05-05 11:29 | 49.17354 | 3.53356 | 32852 ft | 434 kts | 233° |
| 2026-05-05 11:29 | 49.13984 | 3.45700 | 32853 ft | 434 kts | 233° |
| 2026-05-05 11:30 | 49.10605 | 3.38058 | 32852 ft | 434 kts | 233° |
| 2026-05-05 11:30 | 49.07240 | 3.30467 | 32853 ft | 434 kts | 233° |
| 2026-05-05 11:31 | 49.03854 | 3.22832 | 32845 ft | 434 kts | 233° |
| 2026-05-05 11:31 | 49.00443 | 3.15162 | 32846 ft | 435 kts | 233° |
| 2026-05-05 11:32 | 48.97070 | 3.07597 | 32848 ft | 435 kts | 233° |
| 2026-05-05 11:32 | 48.93658 | 2.99992 | 32848 ft | 435 kts | 232° |
| 2026-05-05 11:33 | 48.90233 | 2.92382 | 32849 ft | 436 kts | 232° |
| 2026-05-05 11:33 | 48.86805 | 2.84772 | 32850 ft | 437 kts | 232° |
| 2026-05-05 11:34 | 48.83355 | 2.77156 | 32855 ft | 438 kts | 232° |
| 2026-05-05 11:34 | 48.79905 | 2.69544 | 32841 ft | 438 kts | 232° |
| 2026-05-05 11:35 | 48.76451 | 2.61910 | 32843 ft | 439 kts | 232° |
| 2026-05-05 11:35 | 48.72985 | 2.54292 | 32863 ft | 439 kts | 232° |
| 2026-05-05 11:36 | 48.69529 | 2.46738 | 32847 ft | 439 kts | 232° |
| 2026-05-05 11:36 | 48.66051 | 2.39143 | 32829 ft | 439 kts | 232° |
| 2026-05-05 11:37 | 48.62564 | 2.31553 | 32850 ft | 440 kts | 232° |
| 2026-05-05 11:37 | 48.58856 | 2.24238 | 32844 ft | 436 kts | 221° |
| 2026-05-05 11:38 | 48.53954 | 2.19017 | 32854 ft | 430 kts | 202° |
| 2026-05-05 11:38 | 48.48262 | 2.16413 | 32844 ft | 428 kts | 190° |
| 2026-05-05 11:39 | 48.42420 | 2.14536 | 32835 ft | 429 kts | 190° |
| 2026-05-05 11:39 | 48.36567 | 2.12649 | 32821 ft | 430 kts | 190° |
| 2026-05-05 11:40 | 48.30747 | 2.10809 | 32823 ft | 430 kts | 187° |
| 2026-05-05 11:40 | 48.24803 | 2.10746 | 32825 ft | 427 kts | 170° |
| 2026-05-05 11:41 | 48.18902 | 2.12014 | 32825 ft | 428 kts | 171° |
| 2026-05-05 11:41 | 48.12976 | 2.12925 | 32829 ft | 430 kts | 180° |
| 2026-05-05 11:42 | 48.07012 | 2.11945 | 32831 ft | 432 kts | 186° |
| 2026-05-05 11:42 | 48.01045 | 2.10792 | 32838 ft | 433 kts | 185° |
| 2026-05-05 11:43 | 47.95065 | 2.09664 | 32839 ft | 433 kts | 185° |
| 2026-05-05 11:43 | 47.89076 | 2.08527 | 32839 ft | 434 kts | 185° |
| 2026-05-05 11:44 | 47.83081 | 2.07383 | 32839 ft | 434 kts | 185° |
| 2026-05-05 11:44 | 47.77079 | 2.06244 | 32835 ft | 435 kts | 185° |
| 2026-05-05 11:45 | 47.71107 | 2.05110 | 32834 ft | 436 kts | 185° |
| 2026-05-05 11:45 | 47.65094 | 2.03946 | 32826 ft | 436 kts | 188° |
| 2026-05-05 11:46 | 47.59274 | 2.01299 | 32830 ft | 440 kts | 199° |
| 2026-05-05 11:46 | 47.53573 | 1.97979 | 32844 ft | 441 kts | 199° |
| 2026-05-05 11:47 | 47.47854 | 1.94664 | 32854 ft | 441 kts | 199° |
| 2026-05-05 11:47 | 47.42136 | 1.91353 | 32859 ft | 441 kts | 199° |
| 2026-05-05 11:48 | 47.33584 | 1.86435 | 32868 ft | 442 kts | 199° |
| 2026-05-05 11:48 | 47.27855 | 1.83160 | 32873 ft | 442 kts | 199° |
| 2026-05-05 11:49 | 47.22118 | 1.79875 | 32862 ft | 442 kts | 199° |
| 2026-05-05 11:49 | 47.16376 | 1.76596 | 32857 ft | 442 kts | 199° |
| 2026-05-05 11:50 | 47.10620 | 1.73345 | 32860 ft | 443 kts | 199° |
| 2026-05-05 11:50 | 47.04872 | 1.70125 | 32882 ft | 443 kts | 199° |
| 2026-05-05 11:51 | 46.99108 | 1.66904 | 32896 ft | 443 kts | 199° |
| 2026-05-05 11:51 | 46.93341 | 1.63677 | 32890 ft | 443 kts | 199° |
| 2026-05-05 11:52 | 46.87618 | 1.60469 | 32895 ft | 443 kts | 199° |
| 2026-05-05 11:52 | 46.81860 | 1.57263 | 32902 ft | 443 kts | 199° |
| 2026-05-05 11:53 | 46.76099 | 1.54057 | 32901 ft | 442 kts | 199° |
| 2026-05-05 11:53 | 46.70348 | 1.50865 | 32882 ft | 442 kts | 199° |
| 2026-05-05 11:54 | 46.64604 | 1.47692 | 32883 ft | 441 kts | 199° |
| 2026-05-05 11:54 | 46.58856 | 1.44525 | 32884 ft | 440 kts | 199° |
| 2026-05-05 11:55 | 46.53129 | 1.41372 | 32887 ft | 440 kts | 199° |
| 2026-05-05 11:55 | 46.47445 | 1.38254 | 32888 ft | 439 kts | 199° |
| 2026-05-05 11:56 | 46.41723 | 1.35115 | 32889 ft | 439 kts | 199° |
| 2026-05-05 11:56 | 46.36013 | 1.31985 | 32892 ft | 438 kts | 199° |
| 2026-05-05 11:57 | 46.30317 | 1.28872 | 32889 ft | 438 kts | 199° |
| 2026-05-05 11:57 | 46.24613 | 1.25769 | 32896 ft | 438 kts | 199° |
| 2026-05-05 11:58 | 46.18908 | 1.22677 | 32894 ft | 437 kts | 200° |
| 2026-05-05 11:58 | 46.13211 | 1.19588 | 32903 ft | 437 kts | 200° |
| 2026-05-05 11:59 | 46.07513 | 1.16504 | 32907 ft | 437 kts | 200° |
| 2026-05-05 11:59 | 46.01847 | 1.13450 | 32915 ft | 437 kts | 200° |
| 2026-05-05 12:00 | 45.96141 | 1.10374 | 32917 ft | 437 kts | 200° |
| 2026-05-05 12:00 | 45.90444 | 1.07308 | 32920 ft | 437 kts | 200° |
| 2026-05-05 12:01 | 45.84740 | 1.04248 | 32921 ft | 437 kts | 201° |
| 2026-05-05 12:01 | 45.79458 | 1.00000 | 32920 ft | 438 kts | 218° |
| 2026-05-05 12:02 | 45.74798 | 0.94373 | 32912 ft | 438 kts | 219° |
| 2026-05-05 12:02 | 45.70120 | 0.88786 | 32916 ft | 438 kts | 219° |
| 2026-05-05 12:03 | 45.65437 | 0.83219 | 32925 ft | 437 kts | 219° |
| 2026-05-05 12:03 | 45.61551 | 0.78598 | 32919 ft | 437 kts | 219° |
| 2026-05-05 12:04 | 45.56117 | 0.72137 | 32921 ft | 437 kts | 219° |
| 2026-05-05 12:04 | 45.52199 | 0.67483 | 32926 ft | 437 kts | 219° |
| 2026-05-05 12:05 | 45.47522 | 0.61946 | 32934 ft | 437 kts | 219° |
| 2026-05-05 12:05 | 45.42878 | 0.56463 | 32937 ft | 436 kts | 219° |
| 2026-05-05 12:06 | 45.38207 | 0.50963 | 32946 ft | 436 kts | 219° |
| 2026-05-05 12:06 | 45.33530 | 0.45467 | 32949 ft | 435 kts | 219° |
| 2026-05-05 12:07 | 45.28861 | 0.39984 | 32944 ft | 435 kts | 219° |
| 2026-05-05 12:07 | 45.24188 | 0.34512 | 32947 ft | 435 kts | 219° |
| 2026-05-05 12:08 | 45.19518 | 0.29065 | 32942 ft | 435 kts | 219° |
| 2026-05-05 12:08 | 45.14841 | 0.23625 | 32951 ft | 435 kts | 219° |
| 2026-05-05 12:09 | 45.10175 | 0.18193 | 32954 ft | 434 kts | 219° |
| 2026-05-05 12:09 | 45.05502 | 0.12765 | 32956 ft | 434 kts | 219° |
| 2026-05-05 12:10 | 45.00827 | 0.07349 | 32955 ft | 434 kts | 219° |
| 2026-05-05 12:10 | 44.96152 | 0.01950 | 32958 ft | 434 kts | 219° |
| 2026-05-05 12:11 | 44.91506 | -0.03398 | 32958 ft | 433 kts | 219° |
| 2026-05-05 12:11 | 44.86828 | -0.08767 | 32959 ft | 433 kts | 219° |
| 2026-05-05 12:12 | 44.82158 | -0.14119 | 32960 ft | 432 kts | 219° |
| 2026-05-05 12:12 | 44.77487 | -0.19471 | 32961 ft | 432 kts | 219° |
| 2026-05-05 12:13 | 44.72852 | -0.24772 | 32966 ft | 432 kts | 219° |
| 2026-05-05 12:13 | 44.68181 | -0.30089 | 32967 ft | 432 kts | 219° |
| 2026-05-05 12:14 | 44.63489 | -0.35347 | 32970 ft | 432 kts | 217° |
| 2026-05-05 12:14 | 44.58571 | -0.40195 | 32969 ft | 432 kts | 214° |
| 2026-05-05 12:15 | 44.53565 | -0.44842 | 32969 ft | 431 kts | 214° |
| 2026-05-05 12:15 | 44.48578 | -0.49523 | 32967 ft | 431 kts | 214° |
| 2026-05-05 12:16 | 44.43631 | -0.54250 | 32968 ft | 430 kts | 215° |
| 2026-05-05 12:16 | 44.38696 | -0.58988 | 32968 ft | 430 kts | 215° |
| 2026-05-05 12:17 | 44.33765 | -0.63702 | 32972 ft | 429 kts | 215° |
| 2026-05-05 12:17 | 44.28836 | -0.68397 | 32973 ft | 429 kts | 215° |
| 2026-05-05 12:18 | 44.23943 | -0.73177 | 32971 ft | 429 kts | 217° |
| 2026-05-05 12:18 | 44.19181 | -0.78104 | 32973 ft | 429 kts | 217° |
| 2026-05-05 12:19 | 44.14402 | -0.83072 | 32975 ft | 429 kts | 217° |
| 2026-05-05 12:19 | 44.09589 | -0.87986 | 32980 ft | 429 kts | 217° |
| 2026-05-05 12:20 | 44.04757 | -0.92868 | 32985 ft | 429 kts | 217° |
| 2026-05-05 12:20 | 43.99932 | -0.97737 | 32992 ft | 429 kts | 217° |
| 2026-05-05 12:21 | 43.95116 | -1.02606 | 32999 ft | 428 kts | 217° |
| 2026-05-05 12:21 | 43.90296 | -1.07477 | 33001 ft | 428 kts | 217° |
| 2026-05-05 12:22 | 43.85479 | -1.12331 | 33001 ft | 428 kts | 217° |
| 2026-05-05 12:22 | 43.80662 | -1.17162 | 33003 ft | 428 kts | 217° |
| 2026-05-05 12:23 | 43.75842 | -1.21991 | 33003 ft | 427 kts | 217° |
| 2026-05-05 12:23 | 43.71054 | -1.26776 | 33002 ft | 427 kts | 217° |
| 2026-05-05 12:24 | 43.66246 | -1.31579 | 33007 ft | 426 kts | 217° |
| 2026-05-05 12:24 | 43.61432 | -1.36386 | 33025 ft | 426 kts | 217° |
| 2026-05-05 12:25 | 43.56622 | -1.41164 | 33030 ft | 426 kts | 217° |
| 2026-05-05 12:25 | 43.51801 | -1.45935 | 33029 ft | 426 kts | 217° |
| 2026-05-05 12:26 | 43.47130 | -1.50942 | 33028 ft | 425 kts | 226° |
| 2026-05-05 12:26 | 43.43605 | -1.57362 | 33030 ft | 424 kts | 236° |
| 2026-05-05 12:27 | 43.40310 | -1.64163 | 33032 ft | 424 kts | 236° |
| 2026-05-05 12:27 | 43.37050 | -1.70866 | 33031 ft | 424 kts | 236° |
| 2026-05-05 12:28 | 43.33757 | -1.77611 | 33029 ft | 425 kts | 236° |
| 2026-05-05 12:28 | 43.30456 | -1.84332 | 33032 ft | 425 kts | 235° |
| 2026-05-05 12:29 | 43.26947 | -1.90861 | 33030 ft | 424 kts | 233° |
| 2026-05-05 12:29 | 43.23325 | -1.97273 | 33030 ft | 424 kts | 232° |
| 2026-05-05 12:30 | 43.19721 | -2.03679 | 33028 ft | 424 kts | 233° |
| 2026-05-05 12:30 | 43.16147 | -2.10115 | 33026 ft | 425 kts | 233° |
| 2026-05-05 12:31 | 43.12575 | -2.16559 | 33022 ft | 424 kts | 233° |
| 2026-05-05 12:31 | 43.09025 | -2.22948 | 33020 ft | 424 kts | 233° |
| 2026-05-05 12:32 | 43.05443 | -2.29371 | 33019 ft | 424 kts | 233° |
| 2026-05-05 12:32 | 43.01858 | -2.35789 | 33023 ft | 425 kts | 233° |
| 2026-05-05 12:33 | 42.98262 | -2.42199 | 33026 ft | 425 kts | 233° |
| 2026-05-05 12:33 | 42.94666 | -2.48596 | 33025 ft | 425 kts | 233° |
| 2026-05-05 12:34 | 42.91069 | -2.54997 | 33027 ft | 425 kts | 233° |
| 2026-05-05 12:34 | 42.87464 | -2.61392 | 33034 ft | 425 kts | 233° |
| 2026-05-05 12:35 | 42.83850 | -2.67787 | 33022 ft | 425 kts | 233° |
| 2026-05-05 12:35 | 42.80255 | -2.74127 | 33030 ft | 426 kts | 233° |
| 2026-05-05 12:36 | 42.76627 | -2.80504 | 33026 ft | 426 kts | 233° |
| 2026-05-05 12:36 | 42.73002 | -2.86880 | 33026 ft | 426 kts | 233° |
| 2026-05-05 12:37 | 42.69418 | -2.93290 | 33017 ft | 426 kts | 234° |
| 2026-05-05 12:37 | 42.65856 | -2.99743 | 33011 ft | 426 kts | 234° |
| 2026-05-05 12:38 | 42.62281 | -3.06179 | 33010 ft | 427 kts | 234° |
| 2026-05-05 12:38 | 42.58687 | -3.12594 | 33006 ft | 427 kts | 234° |
| 2026-05-05 12:39 | 42.55093 | -3.19002 | 33000 ft | 427 kts | 234° |
| 2026-05-05 12:39 | 42.51495 | -3.25419 | 33004 ft | 427 kts | 234° |
| 2026-05-05 12:40 | 42.47908 | -3.31792 | 33004 ft | 427 kts | 234° |
| 2026-05-05 12:40 | 42.44301 | -3.38187 | 33003 ft | 428 kts | 234° |
| 2026-05-05 12:41 | 42.40686 | -3.44594 | 33001 ft | 428 kts | 234° |
| 2026-05-05 12:41 | 42.37067 | -3.50987 | 33002 ft | 428 kts | 234° |
| 2026-05-05 12:42 | 42.33446 | -3.57378 | 33001 ft | 428 kts | 234° |
| 2026-05-05 12:42 | 42.29836 | -3.63724 | 33002 ft | 428 kts | 234° |
| 2026-05-05 12:43 | 42.26201 | -3.70101 | 33002 ft | 429 kts | 234° |
| 2026-05-05 12:43 | 42.22561 | -3.76481 | 33002 ft | 429 kts | 234° |
| 2026-05-05 12:44 | 42.18907 | -3.82864 | 33006 ft | 429 kts | 234° |
| 2026-05-05 12:44 | 42.15252 | -3.89228 | 33007 ft | 429 kts | 234° |
| 2026-05-05 12:45 | 42.11594 | -3.95595 | 33011 ft | 430 kts | 234° |
| 2026-05-05 12:45 | 42.07933 | -4.01956 | 33008 ft | 430 kts | 234° |
| 2026-05-05 12:46 | 42.04262 | -4.08314 | 33007 ft | 430 kts | 234° |
| 2026-05-05 12:46 | 42.00069 | -4.14082 | 33012 ft | 434 kts | 224° |
| 2026-05-05 12:47 | 41.95507 | -4.19419 | 33006 ft | 434 kts | 224° |
| 2026-05-05 12:47 | 41.90960 | -4.24739 | 33015 ft | 434 kts | 224° |
| 2026-05-05 12:48 | 41.86440 | -4.30022 | 33020 ft | 434 kts | 224° |
| 2026-05-05 12:48 | 41.81884 | -4.35340 | 33016 ft | 434 kts | 224° |
| 2026-05-05 12:49 | 41.77331 | -4.40642 | 33004 ft | 434 kts | 224° |
| 2026-05-05 12:49 | 41.72772 | -4.45934 | 33015 ft | 434 kts | 224° |
| 2026-05-05 12:50 | 41.68206 | -4.51221 | 33020 ft | 434 kts | 224° |
| 2026-05-05 12:50 | 41.63634 | -4.56507 | 33016 ft | 434 kts | 225° |
| 2026-05-05 12:51 | 41.59835 | -4.60893 | 33015 ft | 434 kts | 225° |
| 2026-05-05 12:51 | 41.54522 | -4.67031 | 33014 ft | 434 kts | 225° |
| 2026-05-05 12:52 | 41.49949 | -4.72299 | 33011 ft | 434 kts | 225° |
| 2026-05-05 12:52 | 41.46141 | -4.76666 | 33012 ft | 434 kts | 225° |
| 2026-05-05 12:53 | 41.41556 | -4.81910 | 33013 ft | 435 kts | 225° |
| 2026-05-05 12:53 | 41.36962 | -4.87166 | 33009 ft | 435 kts | 225° |
| 2026-05-05 12:54 | 41.30077 | -4.95034 | 33006 ft | 435 kts | 225° |
| 2026-05-05 12:55 | 41.25477 | -5.00263 | 33006 ft | 435 kts | 225° |
| 2026-05-05 12:55 | 41.20866 | -5.05482 | 33011 ft | 435 kts | 225° |
| 2026-05-05 12:56 | 41.16263 | -5.10703 | 33002 ft | 435 kts | 225° |
| 2026-05-05 12:56 | 41.11662 | -5.15907 | 33018 ft | 434 kts | 225° |
| 2026-05-05 12:57 | 41.07066 | -5.21097 | 33027 ft | 434 kts | 225° |
| 2026-05-05 12:57 | 41.02469 | -5.26276 | 33040 ft | 434 kts | 225° |
| 2026-05-05 12:58 | 40.97876 | -5.31448 | 33046 ft | 433 kts | 225° |
| 2026-05-05 12:58 | 40.93287 | -5.36606 | 33052 ft | 433 kts | 225° |
| 2026-05-05 12:59 | 40.88690 | -5.41747 | 33054 ft | 433 kts | 225° |
| 2026-05-05 12:59 | 40.84097 | -5.46884 | 33055 ft | 433 kts | 225° |
| 2026-05-05 13:00 | 40.77234 | -5.54545 | 33040 ft | 432 kts | 226° |
| 2026-05-05 13:01 | 40.68047 | -5.64758 | 33024 ft | 431 kts | 226° |
| 2026-05-05 13:01 | 40.63464 | -5.69844 | 33017 ft | 430 kts | 226° |
| 2026-05-05 13:02 | 40.58887 | -5.74910 | 33009 ft | 430 kts | 226° |
| 2026-05-05 13:02 | 40.54310 | -5.79958 | 33017 ft | 429 kts | 226° |
| 2026-05-05 13:03 | 40.49744 | -5.84985 | 33018 ft | 428 kts | 226° |
| 2026-05-05 13:03 | 40.45194 | -5.90005 | 33013 ft | 427 kts | 227° |
| 2026-05-05 13:04 | 40.40652 | -5.95008 | 33014 ft | 426 kts | 227° |
| 2026-05-05 13:04 | 40.36114 | -5.99992 | 33012 ft | 425 kts | 227° |
| 2026-05-05 13:05 | 40.31576 | -6.04963 | 33008 ft | 425 kts | 227° |
| 2026-05-05 13:05 | 40.27073 | -6.09879 | 33012 ft | 424 kts | 227° |
| 2026-05-05 13:06 | 40.22548 | -6.14813 | 33009 ft | 422 kts | 227° |
| 2026-05-05 13:06 | 40.18043 | -6.19725 | 33013 ft | 421 kts | 228° |
| 2026-05-05 13:07 | 40.13549 | -6.24612 | 33015 ft | 420 kts | 228° |
| 2026-05-05 13:07 | 40.09065 | -6.29471 | 33015 ft | 418 kts | 228° |
| 2026-05-05 13:08 | 40.04597 | -6.34311 | 33012 ft | 416 kts | 228° |
| 2026-05-05 13:08 | 40.00142 | -6.39126 | 33015 ft | 415 kts | 228° |
| 2026-05-05 13:09 | 39.95699 | -6.43914 | 33015 ft | 414 kts | 227° |
| 2026-05-05 13:09 | 39.91258 | -6.48701 | 33015 ft | 414 kts | 227° |
| 2026-05-05 13:10 | 39.86820 | -6.53491 | 33020 ft | 414 kts | 227° |
| 2026-05-05 13:10 | 39.82412 | -6.58231 | 33021 ft | 414 kts | 227° |
| 2026-05-05 13:11 | 39.77958 | -6.63011 | 33028 ft | 415 kts | 227° |
| 2026-05-05 13:11 | 39.73506 | -6.67769 | 33028 ft | 415 kts | 227° |
| 2026-05-05 13:12 | 39.69040 | -6.72532 | 33033 ft | 415 kts | 227° |
| 2026-05-05 13:12 | 39.64589 | -6.77286 | 33035 ft | 415 kts | 226° |
| 2026-05-05 13:13 | 39.60121 | -6.82039 | 33034 ft | 415 kts | 226° |
| 2026-05-05 13:13 | 39.55662 | -6.86766 | 33039 ft | 414 kts | 226° |
| 2026-05-05 13:14 | 39.51208 | -6.91500 | 33037 ft | 414 kts | 226° |
| 2026-05-05 13:14 | 39.46747 | -6.96221 | 33039 ft | 414 kts | 226° |
| 2026-05-05 13:15 | 39.42281 | -7.00935 | 33040 ft | 414 kts | 226° |
| 2026-05-05 13:15 | 39.37821 | -7.05635 | 33045 ft | 414 kts | 226° |
| 2026-05-05 13:16 | 39.33364 | -7.10337 | 33043 ft | 413 kts | 225° |
| 2026-05-05 13:16 | 39.28907 | -7.15029 | 33047 ft | 413 kts | 225° |
| 2026-05-05 13:17 | 39.24447 | -7.19708 | 33046 ft | 413 kts | 225° |
| 2026-05-05 13:17 | 39.19958 | -7.24281 | 33047 ft | 415 kts | 223° |
| 2026-05-05 13:18 | 39.15200 | -7.28621 | 33054 ft | 417 kts | 221° |
| 2026-05-05 13:18 | 39.10439 | -7.32802 | 33048 ft | 417 kts | 221° |
| 2026-05-05 13:19 | 39.05674 | -7.37046 | 33062 ft | 416 kts | 221° |
| 2026-05-05 13:19 | 39.00933 | -7.41333 | 33057 ft | 416 kts | 221° |
| 2026-05-05 13:20 | 38.96215 | -7.45614 | 33053 ft | 415 kts | 221° |
| 2026-05-05 13:20 | 38.91487 | -7.49878 | 33059 ft | 415 kts | 221° |
| 2026-05-05 13:21 | 38.86763 | -7.54129 | 33059 ft | 414 kts | 221° |
| 2026-05-05 13:21 | 38.82043 | -7.58361 | 33059 ft | 414 kts | 221° |
| 2026-05-05 13:22 | 38.77355 | -7.62557 | 33060 ft | 413 kts | 221° |
| 2026-05-05 13:22 | 38.72653 | -7.66765 | 33062 ft | 412 kts | 221° |
| 2026-05-05 13:23 | 38.67948 | -7.70972 | 33061 ft | 412 kts | 221° |
| 2026-05-05 13:23 | 38.63250 | -7.75161 | 33061 ft | 412 kts | 221° |
| 2026-05-05 13:24 | 38.58547 | -7.79340 | 33064 ft | 412 kts | 221° |
| 2026-05-05 13:24 | 38.53839 | -7.83518 | 33063 ft | 412 kts | 221° |
| 2026-05-05 13:25 | 38.49137 | -7.87690 | 33063 ft | 412 kts | 221° |
| 2026-05-05 13:25 | 38.44425 | -7.91867 | 33072 ft | 412 kts | 221° |
| 2026-05-05 13:26 | 38.39713 | -7.96030 | 33077 ft | 412 kts | 221° |
| 2026-05-05 13:26 | 38.35003 | -8.00182 | 33081 ft | 412 kts | 220° |
| 2026-05-05 13:27 | 38.30293 | -8.04342 | 33066 ft | 412 kts | 220° |
| 2026-05-05 13:27 | 38.25574 | -8.08496 | 33080 ft | 412 kts | 220° |
| 2026-05-05 13:28 | 38.20882 | -8.12618 | 33076 ft | 413 kts | 220° |
| 2026-05-05 13:28 | 38.16123 | -8.16782 | 33080 ft | 413 kts | 220° |
| 2026-05-05 13:29 | 38.11426 | -8.20899 | 33077 ft | 413 kts | 220° |
| 2026-05-05 13:29 | 38.06694 | -8.25037 | 33079 ft | 413 kts | 220° |
| 2026-05-05 13:30 | 38.01958 | -8.29169 | 33080 ft | 414 kts | 220° |
| 2026-05-05 13:30 | 37.97211 | -8.33304 | 33083 ft | 414 kts | 220° |
| 2026-05-05 13:31 | 37.92462 | -8.37438 | 33084 ft | 414 kts | 220° |
| 2026-05-05 13:31 | 37.87708 | -8.41573 | 33091 ft | 415 kts | 220° |
| 2026-05-05 13:32 | 37.82948 | -8.45701 | 33096 ft | 415 kts | 219° |
| 2026-05-05 13:32 | 37.78177 | -8.49825 | 33094 ft | 416 kts | 219° |
| 2026-05-05 13:33 | 37.73827 | -8.53586 | 33099 ft | 416 kts | 219° |
| 2026-05-05 13:33 | 37.69051 | -8.57708 | 33104 ft | 416 kts | 219° |
| 2026-05-05 13:34 | 37.64262 | -8.61837 | 33104 ft | 417 kts | 219° |
| 2026-05-05 13:34 | 37.59468 | -8.65969 | 33106 ft | 418 kts | 219° |
| 2026-05-05 13:35 | 37.54660 | -8.70097 | 33109 ft | 418 kts | 219° |
| 2026-05-05 13:35 | 37.49848 | -8.74219 | 33111 ft | 419 kts | 219° |
| 2026-05-05 13:36 | 37.45026 | -8.78348 | 33113 ft | 419 kts | 219° |
| 2026-05-05 13:36 | 37.40200 | -8.82479 | 33113 ft | 420 kts | 219° |
| 2026-05-05 13:37 | 37.35362 | -8.86609 | 33117 ft | 420 kts | 218° |
| 2026-05-05 13:37 | 37.30549 | -8.90711 | 33119 ft | 421 kts | 218° |
| 2026-05-05 13:38 | 37.25667 | -8.94863 | 33121 ft | 421 kts | 218° |
| 2026-05-05 13:38 | 37.20840 | -8.98967 | 33127 ft | 422 kts | 218° |
| 2026-05-05 13:39 | 37.15979 | -9.03096 | 33125 ft | 423 kts | 218° |
| 2026-05-05 13:39 | 37.11097 | -9.07228 | 33124 ft | 423 kts | 218° |
| 2026-05-05 13:40 | 37.06217 | -9.11357 | 33129 ft | 424 kts | 218° |
| 2026-05-05 13:40 | 37.01318 | -9.15494 | 33127 ft | 424 kts | 218° |
| 2026-05-05 13:41 | 36.96424 | -9.19623 | 33128 ft | 425 kts | 218° |
| 2026-05-05 13:41 | 36.92348 | -9.23054 | 33133 ft | 425 kts | 218° |
| 2026-05-05 13:42 | 36.87443 | -9.27166 | 33131 ft | 425 kts | 218° |
| 2026-05-05 13:42 | 36.82530 | -9.31283 | 33131 ft | 425 kts | 218° |
| 2026-05-05 13:43 | 36.77621 | -9.35399 | 33137 ft | 425 kts | 218° |
| 2026-05-05 13:43 | 36.72717 | -9.39516 | 33134 ft | 425 kts | 218° |
| 2026-05-05 13:44 | 36.67807 | -9.43624 | 33133 ft | 425 kts | 217° |
| 2026-05-05 13:44 | 36.62891 | -9.47716 | 33136 ft | 425 kts | 217° |
| 2026-05-05 13:45 | 36.58004 | -9.51787 | 33135 ft | 425 kts | 217° |
| 2026-05-05 13:45 | 36.53084 | -9.55875 | 33139 ft | 425 kts | 217° |
| 2026-05-05 13:46 | 36.48158 | -9.59960 | 33130 ft | 425 kts | 217° |
| 2026-05-05 13:46 | 36.43239 | -9.64039 | 33145 ft | 425 kts | 217° |
| 2026-05-05 13:47 | 36.38324 | -9.68120 | 33138 ft | 425 kts | 217° |
| 2026-05-05 13:47 | 36.33395 | -9.72190 | 33142 ft | 426 kts | 217° |
| 2026-05-05 13:48 | 36.28462 | -9.76254 | 33137 ft | 426 kts | 217° |
| 2026-05-05 13:48 | 36.23526 | -9.80317 | 33133 ft | 426 kts | 217° |
| 2026-05-05 13:49 | 36.18588 | -9.84380 | 33139 ft | 426 kts | 217° |
| 2026-05-05 13:49 | 36.13649 | -9.88436 | 33142 ft | 426 kts | 217° |
| 2026-05-05 13:50 | 36.08709 | -9.92484 | 33143 ft | 426 kts | 217° |
| 2026-05-05 13:50 | 36.03760 | -9.96533 | 33145 ft | 426 kts | 217° |
| 2026-05-05 13:51 | 35.98839 | -10.00549 | 33144 ft | 426 kts | 217° |
| 2026-05-05 13:51 | 35.93945 | -10.04678 | 33146 ft | 425 kts | 219° |
| 2026-05-05 13:52 | 35.89236 | -10.09096 | 33147 ft | 425 kts | 221° |
| 2026-05-05 13:52 | 35.84563 | -10.13566 | 33145 ft | 425 kts | 220° |
| 2026-05-05 13:53 | 35.79854 | -10.17986 | 33145 ft | 426 kts | 220° |
| 2026-05-05 13:53 | 35.75106 | -10.22364 | 33145 ft | 426 kts | 220° |
| 2026-05-05 13:54 | 35.70348 | -10.26735 | 33148 ft | 427 kts | 220° |
| 2026-05-05 13:54 | 35.65593 | -10.31123 | 33151 ft | 427 kts | 220° |
| 2026-05-05 13:55 | 35.60844 | -10.35508 | 33149 ft | 427 kts | 220° |
| 2026-05-05 13:55 | 35.56078 | -10.39891 | 33148 ft | 428 kts | 219° |
| 2026-05-05 13:56 | 35.51341 | -10.44238 | 33150 ft | 428 kts | 219° |
| 2026-05-05 13:56 | 35.46569 | -10.48614 | 33147 ft | 428 kts | 219° |
| 2026-05-05 13:57 | 35.41786 | -10.52988 | 33150 ft | 428 kts | 219° |
| 2026-05-05 13:57 | 35.36999 | -10.57360 | 33146 ft | 429 kts | 219° |
| 2026-05-05 13:58 | 35.32209 | -10.61745 | 33150 ft | 429 kts | 219° |
| 2026-05-05 13:58 | 35.27451 | -10.66088 | 33152 ft | 430 kts | 219° |
| 2026-05-05 13:59 | 35.20250 | -10.72640 | 33154 ft | 430 kts | 219° |
| 2026-05-05 14:00 | 35.13813 | -10.78477 | 33150 ft | 431 kts | 219° |
| 2026-05-05 14:00 | 35.08203 | -10.83548 | 33153 ft | 432 kts | 219° |
| 2026-05-05 14:01 | 35.03379 | -10.87920 | 33149 ft | 432 kts | 219° |
| 2026-05-05 14:01 | 34.98548 | -10.92290 | 33427 ft | 433 kts | 219° |
| 2026-05-05 14:02 | 34.96132 | -10.94471 | 33759 ft | 432 kts | 219° |
| 2026-05-05 14:02 | 34.93713 | -10.96652 | 34063 ft | 431 kts | 218° |
| 2026-05-05 14:02 | 34.91300 | -10.98825 | 34338 ft | 431 kts | 218° |
| 2026-05-05 14:02 | 34.88895 | -11.00992 | 34597 ft | 430 kts | 218° |
| 2026-05-05 14:03 | 34.86494 | -11.03155 | 34851 ft | 429 kts | 218° |
| 2026-05-05 14:03 | 34.84095 | -11.05313 | 35075 ft | 429 kts | 218° |
| 2026-05-05 14:03 | 34.79297 | -11.09626 | 35142 ft | 428 kts | 218° |
| 2026-05-05 14:04 | 34.74536 | -11.13902 | 35147 ft | 428 kts | 218° |
| 2026-05-05 14:04 | 34.69741 | -11.18193 | 35148 ft | 428 kts | 218° |
| 2026-05-05 14:05 | 34.64938 | -11.22483 | 35145 ft | 429 kts | 218° |
| 2026-05-05 14:05 | 34.60134 | -11.26773 | 35143 ft | 429 kts | 219° |
| 2026-05-05 14:06 | 34.55333 | -11.31076 | 35136 ft | 429 kts | 219° |
| 2026-05-05 14:06 | 34.50531 | -11.35385 | 35138 ft | 430 kts | 219° |
| 2026-05-05 14:07 | 34.45722 | -11.39699 | 35137 ft | 430 kts | 219° |
| 2026-05-05 14:07 | 34.40907 | -11.44001 | 35138 ft | 430 kts | 218° |
| 2026-05-05 14:08 | 34.36089 | -11.48303 | 35132 ft | 430 kts | 218° |
| 2026-05-05 14:08 | 34.31266 | -11.52601 | 35129 ft | 431 kts | 218° |
| 2026-05-05 14:09 | 34.26434 | -11.56897 | 35136 ft | 431 kts | 218° |
| 2026-05-05 14:09 | 34.21605 | -11.61198 | 35129 ft | 431 kts | 218° |
| 2026-05-05 14:10 | 34.16769 | -11.65497 | 35130 ft | 432 kts | 218° |
| 2026-05-05 14:10 | 34.11920 | -11.69787 | 35129 ft | 432 kts | 218° |
| 2026-05-05 14:11 | 34.07059 | -11.74071 | 35129 ft | 432 kts | 218° |
| 2026-05-05 14:11 | 34.02233 | -11.78330 | 35127 ft | 432 kts | 218° |
| 2026-05-05 14:12 | 33.97381 | -11.82613 | 35129 ft | 433 kts | 218° |
| 2026-05-05 14:12 | 33.92518 | -11.86900 | 35130 ft | 433 kts | 218° |
| 2026-05-05 14:13 | 33.87653 | -11.91184 | 35132 ft | 433 kts | 218° |
| 2026-05-05 14:13 | 33.82776 | -11.95467 | 35136 ft | 433 kts | 218° |
| 2026-05-05 14:14 | 33.77899 | -11.99744 | 35134 ft | 433 kts | 218° |
| 2026-05-05 14:14 | 33.73023 | -12.04018 | 35146 ft | 433 kts | 218° |
| 2026-05-05 14:15 | 33.68137 | -12.08279 | 35150 ft | 433 kts | 218° |
| 2026-05-05 14:15 | 33.63293 | -12.12511 | 35145 ft | 433 kts | 218° |
| 2026-05-05 14:16 | 33.58417 | -12.16764 | 35139 ft | 433 kts | 218° |
| 2026-05-05 14:16 | 33.53539 | -12.21011 | 35145 ft | 433 kts | 218° |
| 2026-05-05 14:17 | 33.48659 | -12.25260 | 35147 ft | 433 kts | 218° |
| 2026-05-05 14:17 | 33.43776 | -12.29496 | 35147 ft | 433 kts | 218° |
| 2026-05-05 14:18 | 33.38931 | -12.33707 | 35146 ft | 433 kts | 218° |
| 2026-05-05 14:18 | 33.34045 | -12.37932 | 35140 ft | 433 kts | 218° |
| 2026-05-05 14:19 | 33.29154 | -12.42157 | 35149 ft | 433 kts | 218° |
| 2026-05-05 14:19 | 33.24274 | -12.46377 | 35144 ft | 433 kts | 218° |
| 2026-05-05 14:20 | 33.19379 | -12.50594 | 35135 ft | 433 kts | 218° |
| 2026-05-05 14:20 | 33.14488 | -12.54795 | 35136 ft | 433 kts | 218° |
| 2026-05-05 14:21 | 33.09628 | -12.58970 | 35143 ft | 433 kts | 218° |
| 2026-05-05 14:21 | 33.04738 | -12.63178 | 35137 ft | 434 kts | 218° |
| 2026-05-05 14:22 | 32.99838 | -12.67376 | 35138 ft | 434 kts | 217° |
| 2026-05-05 14:22 | 32.94933 | -12.71573 | 35133 ft | 434 kts | 218° |
| 2026-05-05 14:23 | 32.90037 | -12.75767 | 35135 ft | 434 kts | 218° |
| 2026-05-05 14:23 | 32.85134 | -12.79953 | 35139 ft | 434 kts | 218° |
| 2026-05-05 14:24 | 32.80228 | -12.84127 | 35133 ft | 434 kts | 217° |
| 2026-05-05 14:24 | 32.75306 | -12.88284 | 35134 ft | 434 kts | 217° |
| 2026-05-05 14:25 | 32.70386 | -12.92446 | 35127 ft | 434 kts | 217° |
| 2026-05-05 14:25 | 32.65497 | -12.96577 | 35130 ft | 434 kts | 218° |
| 2026-05-05 14:26 | 32.60585 | -13.00727 | 35140 ft | 433 kts | 218° |
| 2026-05-05 14:26 | 32.55681 | -13.04870 | 35143 ft | 432 kts | 218° |
| 2026-05-05 14:27 | 32.50786 | -13.08988 | 35147 ft | 431 kts | 218° |
| 2026-05-05 14:27 | 32.45899 | -13.13086 | 35148 ft | 430 kts | 218° |
| 2026-05-05 14:28 | 32.41025 | -13.17169 | 35151 ft | 428 kts | 218° |
| 2026-05-05 14:28 | 32.36172 | -13.21239 | 35146 ft | 427 kts | 218° |
| 2026-05-05 14:29 | 32.32142 | -13.24611 | 35144 ft | 426 kts | 218° |
| 2026-05-05 14:29 | 32.26524 | -13.29309 | 35143 ft | 425 kts | 218° |
| 2026-05-05 14:30 | 32.21702 | -13.33338 | 35142 ft | 424 kts | 218° |
| 2026-05-05 14:30 | 32.17699 | -13.36675 | 35139 ft | 423 kts | 218° |
| 2026-05-05 14:31 | 32.12867 | -13.40700 | 35138 ft | 422 kts | 218° |
| 2026-05-05 14:31 | 32.08104 | -13.44662 | 35132 ft | 421 kts | 218° |
| 2026-05-05 14:32 | 32.03319 | -13.48635 | 35136 ft | 420 kts | 218° |
| 2026-05-05 14:32 | 31.98542 | -13.52599 | 35126 ft | 419 kts | 218° |
| 2026-05-05 14:33 | 31.93772 | -13.56546 | 35125 ft | 418 kts | 218° |
| 2026-05-05 14:33 | 31.89012 | -13.60481 | 35129 ft | 418 kts | 218° |
| 2026-05-05 14:34 | 31.84263 | -13.64401 | 35133 ft | 417 kts | 219° |
| 2026-05-05 14:34 | 31.79524 | -13.68308 | 35130 ft | 416 kts | 219° |
| 2026-05-05 14:35 | 31.74798 | -13.72205 | 35127 ft | 414 kts | 219° |
| 2026-05-05 14:35 | 31.70081 | -13.76093 | 35124 ft | 413 kts | 219° |
| 2026-05-05 14:36 | 31.65411 | -13.79936 | 35120 ft | 411 kts | 219° |
| 2026-05-05 14:36 | 31.63074 | -13.81857 | 34653 ft | 410 kts | 219° |
| 2026-05-05 14:36 | 31.60708 | -13.83805 | 33972 ft | 411 kts | 219° |
| 2026-05-05 14:37 | 31.58392 | -13.85711 | 33157 ft | 414 kts | 218° |
| 2026-05-05 14:37 | 31.55989 | -13.87683 | 32299 ft | 418 kts | 218° |
| 2026-05-05 14:37 | 31.53618 | -13.89624 | 31450 ft | 423 kts | 218° |
| 2026-05-05 14:37 | 31.51191 | -13.91611 | 30578 ft | 428 kts | 218° |
| 2026-05-05 14:38 | 31.48735 | -13.93618 | 29646 ft | 433 kts | 217° |
| 2026-05-05 14:38 | 31.46250 | -13.95646 | 28672 ft | 437 kts | 217° |
| 2026-05-05 14:38 | 31.43747 | -13.97689 | 27742 ft | 440 kts | 217° |
| 2026-05-05 14:38 | 31.41229 | -13.99749 | 26812 ft | 443 kts | 217° |
| 2026-05-05 14:39 | 31.38688 | -14.01826 | 25871 ft | 447 kts | 217° |
| 2026-05-05 14:39 | 31.36134 | -14.03914 | 24972 ft | 450 kts | 217° |
| 2026-05-05 14:39 | 31.33576 | -14.05996 | 24323 ft | 446 kts | 217° |
| 2026-05-05 14:39 | 31.31037 | -14.08053 | 23660 ft | 442 kts | 217° |
| 2026-05-05 14:40 | 31.28518 | -14.10097 | 22895 ft | 439 kts | 217° |
| 2026-05-05 14:40 | 31.26035 | -14.12125 | 22216 ft | 433 kts | 218° |
| 2026-05-05 14:40 | 31.23582 | -14.14138 | 21564 ft | 428 kts | 218° |
| 2026-05-05 14:40 | 31.21160 | -14.16123 | 20917 ft | 423 kts | 218° |
| 2026-05-05 14:41 | 31.18764 | -14.18089 | 20334 ft | 418 kts | 218° |
| 2026-05-05 14:41 | 31.16387 | -14.20034 | 20111 ft | 418 kts | 218° |
| 2026-05-05 14:41 | 31.14013 | -14.21976 | 20095 ft | 417 kts | 218° |
| 2026-05-05 14:41 | 31.11632 | -14.23922 | 20101 ft | 418 kts | 218° |
| 2026-05-05 14:42 | 31.09249 | -14.25865 | 20100 ft | 418 kts | 218° |
| 2026-05-05 14:42 | 31.06872 | -14.27805 | 20100 ft | 417 kts | 218° |
| 2026-05-05 14:42 | 31.04494 | -14.29745 | 20095 ft | 417 kts | 218° |
| 2026-05-05 14:42 | 31.02114 | -14.31679 | 20098 ft | 417 kts | 218° |
| 2026-05-05 14:43 | 30.99766 | -14.33589 | 20095 ft | 417 kts | 218° |
| 2026-05-05 14:43 | 30.97389 | -14.35526 | 20101 ft | 416 kts | 218° |
| 2026-05-05 14:43 | 30.95014 | -14.37457 | 20098 ft | 416 kts | 218° |
| 2026-05-05 14:43 | 30.92641 | -14.39385 | 20097 ft | 416 kts | 218° |
| 2026-05-05 14:44 | 30.90162 | -14.41138 | 20094 ft | 419 kts | 210° |
| 2026-05-05 14:44 | 30.87476 | -14.42476 | 20096 ft | 422 kts | 202° |
| 2026-05-05 14:44 | 30.84673 | -14.43510 | 20094 ft | 423 kts | 201° |
| 2026-05-05 14:44 | 30.81873 | -14.44537 | 20095 ft | 422 kts | 201° |
| 2026-05-05 14:45 | 30.79072 | -14.45567 | 20095 ft | 422 kts | 201° |
| 2026-05-05 14:45 | 30.76272 | -14.46597 | 20093 ft | 421 kts | 201° |
| 2026-05-05 14:45 | 30.73478 | -14.47627 | 20094 ft | 421 kts | 201° |
| 2026-05-05 14:45 | 30.70689 | -14.48658 | 20093 ft | 421 kts | 201° |
| 2026-05-05 14:46 | 30.67900 | -14.49689 | 20093 ft | 420 kts | 201° |
| 2026-05-05 14:46 | 30.65107 | -14.50722 | 20095 ft | 420 kts | 201° |
| 2026-05-05 14:46 | 30.62325 | -14.51750 | 20092 ft | 420 kts | 202° |
| 2026-05-05 14:46 | 30.59545 | -14.52776 | 20089 ft | 419 kts | 202° |
| 2026-05-05 14:47 | 30.56802 | -14.53784 | 20089 ft | 419 kts | 201° |
| 2026-05-05 14:47 | 30.54023 | -14.54800 | 20090 ft | 419 kts | 201° |
| 2026-05-05 14:47 | 30.51248 | -14.55813 | 20096 ft | 418 kts | 202° |
| 2026-05-05 14:47 | 30.48470 | -14.56831 | 20092 ft | 418 kts | 202° |
| 2026-05-05 14:48 | 30.45700 | -14.57847 | 20082 ft | 418 kts | 202° |
| 2026-05-05 14:48 | 30.42928 | -14.58861 | 20079 ft | 417 kts | 202° |
| 2026-05-05 14:48 | 30.40165 | -14.59868 | 20080 ft | 417 kts | 202° |
| 2026-05-05 14:48 | 30.37396 | -14.60882 | 20095 ft | 417 kts | 202° |
| 2026-05-05 14:49 | 30.34634 | -14.61893 | 20090 ft | 417 kts | 202° |
| 2026-05-05 14:49 | 30.31872 | -14.62904 | 20090 ft | 416 kts | 202° |
| 2026-05-05 14:49 | 30.29110 | -14.63915 | 20087 ft | 416 kts | 202° |
| 2026-05-05 14:49 | 30.26354 | -14.64923 | 20083 ft | 416 kts | 202° |
| 2026-05-05 14:50 | 30.23594 | -14.65928 | 20084 ft | 415 kts | 202° |
| 2026-05-05 14:50 | 30.20839 | -14.66929 | 20085 ft | 415 kts | 202° |
| 2026-05-05 14:50 | 30.18086 | -14.67928 | 20083 ft | 415 kts | 202° |
| 2026-05-05 14:50 | 30.15332 | -14.68931 | 20081 ft | 415 kts | 202° |
| 2026-05-05 14:51 | 30.12582 | -14.69933 | 20083 ft | 414 kts | 202° |
| 2026-05-05 14:51 | 30.09837 | -14.70932 | 20084 ft | 414 kts | 202° |
| 2026-05-05 14:51 | 30.07091 | -14.71930 | 20082 ft | 413 kts | 202° |
| 2026-05-05 14:51 | 30.04352 | -14.72925 | 20083 ft | 413 kts | 202° |
| 2026-05-05 14:52 | 30.01610 | -14.73921 | 20081 ft | 412 kts | 202° |
| 2026-05-05 14:52 | 29.98873 | -14.74916 | 20084 ft | 412 kts | 202° |
| 2026-05-05 14:52 | 29.96141 | -14.75909 | 20080 ft | 412 kts | 202° |
| 2026-05-05 14:52 | 29.93415 | -14.76897 | 20081 ft | 411 kts | 202° |
| 2026-05-05 14:53 | 29.90685 | -14.77886 | 20078 ft | 411 kts | 202° |
| 2026-05-05 14:53 | 29.87961 | -14.78872 | 20080 ft | 410 kts | 202° |
| 2026-05-05 14:53 | 29.85239 | -14.79858 | 20078 ft | 410 kts | 202° |
| 2026-05-05 14:53 | 29.82522 | -14.80843 | 20079 ft | 410 kts | 202° |
| 2026-05-05 14:54 | 29.79822 | -14.81818 | 20079 ft | 409 kts | 202° |
| 2026-05-05 14:54 | 29.77108 | -14.82795 | 20075 ft | 409 kts | 202° |
| 2026-05-05 14:54 | 29.74394 | -14.83771 | 20075 ft | 408 kts | 202° |
| 2026-05-05 14:54 | 29.71682 | -14.84746 | 20076 ft | 408 kts | 202° |
| 2026-05-05 14:55 | 29.68974 | -14.85723 | 20076 ft | 408 kts | 203° |
| 2026-05-05 14:55 | 29.66269 | -14.86702 | 20075 ft | 407 kts | 203° |
| 2026-05-05 14:55 | 29.63571 | -14.87677 | 20074 ft | 407 kts | 203° |
| 2026-05-05 14:55 | 29.60873 | -14.88649 | 20073 ft | 406 kts | 203° |
| 2026-05-05 14:56 | 29.58178 | -14.89618 | 20072 ft | 406 kts | 203° |
| 2026-05-05 14:56 | 29.55483 | -14.90588 | 20070 ft | 405 kts | 203° |
| 2026-05-05 14:56 | 29.52796 | -14.91555 | 20073 ft | 405 kts | 203° |
| 2026-05-05 14:56 | 29.50144 | -14.92508 | 20070 ft | 404 kts | 203° |
| 2026-05-05 14:57 | 29.47463 | -14.93468 | 20069 ft | 404 kts | 203° |
| 2026-05-05 14:57 | 29.44784 | -14.94427 | 20067 ft | 403 kts | 203° |
| 2026-05-05 14:57 | 29.42103 | -14.95386 | 20070 ft | 403 kts | 203° |
| 2026-05-05 14:57 | 29.39424 | -14.96345 | 20071 ft | 403 kts | 203° |
| 2026-05-05 14:58 | 29.36747 | -14.97304 | 20071 ft | 403 kts | 203° |
| 2026-05-05 14:58 | 29.34067 | -14.98266 | 20071 ft | 403 kts | 203° |
| 2026-05-05 14:58 | 29.31394 | -14.99220 | 20070 ft | 403 kts | 203° |
| 2026-05-05 14:58 | 29.28717 | -15.00174 | 20070 ft | 402 kts | 203° |
| 2026-05-05 14:59 | 29.26042 | -15.01126 | 20070 ft | 402 kts | 203° |
| 2026-05-05 14:59 | 29.23373 | -15.02079 | 20068 ft | 402 kts | 203° |
| 2026-05-05 14:59 | 29.20703 | -15.03036 | 20063 ft | 402 kts | 203° |
| 2026-05-05 14:59 | 29.18040 | -15.03990 | 20069 ft | 401 kts | 203° |
| 2026-05-05 15:00 | 29.15374 | -15.04943 | 20064 ft | 401 kts | 203° |
| 2026-05-05 15:00 | 29.13572 | -15.05585 | 20066 ft | 401 kts | 203° |
| 2026-05-05 15:00 | 29.10044 | -15.06839 | 20063 ft | 401 kts | 203° |
| 2026-05-05 15:00 | 29.07384 | -15.07785 | 20067 ft | 401 kts | 203° |
| 2026-05-05 15:01 | 29.04719 | -15.08736 | 20063 ft | 401 kts | 203° |
| 2026-05-05 15:01 | 29.02052 | -15.09688 | 20064 ft | 401 kts | 203° |
| 2026-05-05 15:01 | 28.99387 | -15.10639 | 20066 ft | 401 kts | 203° |
| 2026-05-05 15:01 | 28.96726 | -15.11586 | 20062 ft | 401 kts | 203° |
| 2026-05-05 15:02 | 28.94056 | -15.12531 | 20064 ft | 401 kts | 203° |
| 2026-05-05 15:02 | 28.91390 | -15.13473 | 20065 ft | 401 kts | 203° |
| 2026-05-05 15:02 | 28.88720 | -15.14416 | 20056 ft | 401 kts | 203° |
| 2026-05-05 15:02 | 28.86060 | -15.15357 | 20065 ft | 401 kts | 203° |
| 2026-05-05 15:03 | 28.83411 | -15.16293 | 19635 ft | 396 kts | 203° |
| 2026-05-05 15:03 | 28.80787 | -15.17218 | 18949 ft | 393 kts | 202° |
| 2026-05-05 15:03 | 28.78180 | -15.18137 | 18254 ft | 392 kts | 202° |
| 2026-05-05 15:03 | 28.75614 | -15.19044 | 17502 ft | 390 kts | 202° |
| 2026-05-05 15:04 | 28.73005 | -15.19966 | 16787 ft | 387 kts | 202° |
| 2026-05-05 15:04 | 28.70442 | -15.20870 | 16106 ft | 384 kts | 202° |
| 2026-05-05 15:04 | 28.67928 | -15.21757 | 15453 ft | 381 kts | 202° |
| 2026-05-05 15:04 | 28.65402 | -15.22648 | 14801 ft | 379 kts | 202° |
| 2026-05-05 15:05 | 28.60394 | -15.24422 | 13501 ft | 375 kts | 201° |
| 2026-05-05 15:05 | 28.57915 | -15.25301 | 12807 ft | 373 kts | 201° |
| 2026-05-05 15:05 | 28.55444 | -15.26175 | 12161 ft | 370 kts | 201° |
| 2026-05-05 15:06 | 28.52992 | -15.27038 | 11520 ft | 368 kts | 200° |
| 2026-05-05 15:06 | 28.50546 | -15.27896 | 10910 ft | 366 kts | 200° |
| 2026-05-05 15:06 | 28.48115 | -15.28747 | 10296 ft | 365 kts | 200° |
| 2026-05-05 15:06 | 28.45702 | -15.29591 | 9887 ft | 357 kts | 199° |
| 2026-05-05 15:07 | 28.43380 | -15.30401 | 9744 ft | 341 kts | 200° |
| 2026-05-05 15:07 | 28.41158 | -15.31181 | 9625 ft | 327 kts | 200° |
| 2026-05-05 15:07 | 28.39028 | -15.31930 | 9482 ft | 313 kts | 200° |
| 2026-05-05 15:07 | 28.36989 | -15.32648 | 9358 ft | 301 kts | 200° |
| 2026-05-05 15:08 | 28.35028 | -15.33337 | 9231 ft | 289 kts | 200° |
| 2026-05-05 15:08 | 28.33142 | -15.33995 | 9086 ft | 279 kts | 200° |
| 2026-05-05 15:08 | 28.31308 | -15.34636 | 8776 ft | 275 kts | 200° |
| 2026-05-05 15:08 | 28.29479 | -15.35279 | 8383 ft | 274 kts | 199° |
| 2026-05-05 15:09 | 28.27661 | -15.35918 | 7976 ft | 274 kts | 199° |
| 2026-05-05 15:09 | 28.25842 | -15.36557 | 7593 ft | 274 kts | 199° |
| 2026-05-05 15:09 | 28.24024 | -15.37194 | 7201 ft | 273 kts | 199° |
| 2026-05-05 15:09 | 28.22205 | -15.37829 | 6815 ft | 273 kts | 199° |
| 2026-05-05 15:10 | 28.20391 | -15.38465 | 6411 ft | 273 kts | 199° |
| 2026-05-05 15:10 | 28.18578 | -15.39103 | 6085 ft | 272 kts | 198° |
| 2026-05-05 15:10 | 28.16761 | -15.39739 | 6052 ft | 274 kts | 198° |
| 2026-05-05 15:10 | 28.14931 | -15.40378 | 6055 ft | 275 kts | 198° |
| 2026-05-05 15:11 | 28.13105 | -15.41016 | 6055 ft | 275 kts | 198° |
| 2026-05-05 15:11 | 28.11229 | -15.41456 | 6043 ft | 276 kts | 186° |
| 2026-05-05 15:11 | 28.09302 | -15.41446 | 6036 ft | 278 kts | 174° |
| 2026-05-05 15:11 | 28.07415 | -15.40986 | 6034 ft | 279 kts | 163° |
| 2026-05-05 15:12 | 28.05640 | -15.40093 | 6032 ft | 280 kts | 150° |
| 2026-05-05 15:12 | 28.04063 | -15.38795 | 6033 ft | 281 kts | 138° |
| 2026-05-05 15:12 | 28.02670 | -15.37235 | 6033 ft | 282 kts | 136° |
| 2026-05-05 15:12 | 28.01281 | -15.35666 | 6023 ft | 282 kts | 136° |
| 2026-05-05 15:13 | 27.99875 | -15.34120 | 6028 ft | 282 kts | 141° |
| 2026-05-05 15:13 | 27.98183 | -15.33050 | 6025 ft | 279 kts | 165° |
| 2026-05-05 15:13 | 27.96301 | -15.32815 | 6035 ft | 276 kts | 187° |
| 2026-05-05 15:13 | 27.94390 | -15.33042 | 6031 ft | 276 kts | 188° |
| 2026-05-05 15:14 | 27.92480 | -15.33281 | 6029 ft | 277 kts | 187° |
| 2026-05-05 15:14 | 27.90567 | -15.33519 | 6022 ft | 277 kts | 188° |
| 2026-05-05 15:14 | 27.88654 | -15.33758 | 6027 ft | 276 kts | 188° |
| 2026-05-05 15:14 | 27.86743 | -15.33996 | 6036 ft | 276 kts | 188° |
| 2026-05-05 15:15 | 27.84832 | -15.34230 | 6038 ft | 277 kts | 187° |
| 2026-05-05 15:15 | 27.82919 | -15.34464 | 6032 ft | 276 kts | 188° |
| 2026-05-05 15:15 | 27.81007 | -15.34701 | 6025 ft | 276 kts | 188° |
| 2026-05-05 15:15 | 27.79097 | -15.34939 | 6034 ft | 276 kts | 188° |
| 2026-05-05 15:16 | 27.77181 | -15.35177 | 6036 ft | 277 kts | 187° |
| 2026-05-05 15:16 | 27.75268 | -15.35417 | 6039 ft | 276 kts | 187° |
| 2026-05-05 15:16 | 27.73367 | -15.35656 | 5750 ft | 274 kts | 187° |
| 2026-05-05 15:16 | 27.71472 | -15.35902 | 5345 ft | 274 kts | 187° |
| 2026-05-05 15:17 | 27.69582 | -15.36159 | 4953 ft | 274 kts | 187° |
| 2026-05-05 15:17 | 27.67692 | -15.36431 | 4553 ft | 273 kts | 187° |
| 2026-05-05 15:17 | 27.65804 | -15.36712 | 4146 ft | 274 kts | 188° |
| 2026-05-05 15:17 | 27.64001 | -15.37322 | 3797 ft | 269 kts | 213° |
| 2026-05-05 15:18 | 27.63082 | -15.38193 | 3731 ft | 254 kts | 232° |
| 2026-05-05 15:18 | 27.62336 | -15.40462 | 3466 ft | 226 kts | 274° |
| 2026-05-05 15:18 | 27.62792 | -15.42092 | 3075 ft | 217 kts | 309° |
| 2026-05-05 15:18 | 27.63899 | -15.43202 | 3024 ft | 216 kts | 326° |
| 2026-05-05 15:19 | 27.65150 | -15.44152 | 3023 ft | 217 kts | 328° |
| 2026-05-05 15:19 | 27.66411 | -15.45088 | 3016 ft | 217 kts | 329° |
| 2026-05-05 15:19 | 27.67672 | -15.46029 | 3014 ft | 218 kts | 329° |
| 2026-05-05 15:19 | 27.68937 | -15.46969 | 3016 ft | 217 kts | 328° |
| 2026-05-05 15:20 | 27.70273 | -15.47732 | 3010 ft | 215 kts | 345° |
| 2026-05-05 15:20 | 27.71752 | -15.47913 | 3012 ft | 214 kts | 5° |
| 2026-05-05 15:20 | 27.72716 | -15.47686 | 3010 ft | 214 kts | 19° |
| 2026-05-05 15:20 | 27.74106 | -15.47077 | 3012 ft | 214 kts | 21° |
| 2026-05-05 15:21 | 27.75479 | -15.46471 | 3024 ft | 204 kts | 21° |
| 2026-05-05 15:21 | 27.76702 | -15.45932 | 3002 ft | 177 kts | 20° |
| 2026-05-05 15:21 | 27.77812 | -15.45444 | 2954 ft | 167 kts | 21° |
| 2026-05-05 15:21 | 27.78882 | -15.44973 | 2765 ft | 163 kts | 20° |
| 2026-05-05 15:22 | 27.79933 | -15.44510 | 2573 ft | 161 kts | 21° |
| 2026-05-05 15:22 | 27.80965 | -15.44055 | 2365 ft | 158 kts | 21° |
| 2026-05-05 15:22 | 27.81986 | -15.43605 | 2155 ft | 156 kts | 20° |
| 2026-05-05 15:22 | 27.83003 | -15.43156 | 1964 ft | 156 kts | 20° |
| 2026-05-05 15:23 | 27.83979 | -15.42726 | 1761 ft | 146 kts | 20° |
| 2026-05-05 15:23 | 27.84906 | -15.42317 | 1568 ft | 141 kts | 22° |
| 2026-05-05 15:23 | 27.85818 | -15.41915 | 1373 ft | 140 kts | 21° |
| 2026-05-05 15:23 | 27.86728 | -15.41513 | 1184 ft | 140 kts | 21° |
| 2026-05-05 15:24 | 27.87630 | -15.41112 | 1003 ft | 140 kts | 21° |
| 2026-05-05 15:24 | 27.88536 | -15.40713 | 819 ft | 139 kts | 19° |
| 2026-05-05 15:24 | 27.89444 | -15.40320 | 657 ft | 139 kts | 23° |
| 2026-05-05 15:24 | 27.90344 | -15.39917 | 478 ft | 139 kts | 23° |
| 2026-05-05 15:25 | 27.91239 | -15.39524 | 256 ft | 136 kts | 23° |
| 2026-05-05 15:25 | 27.92117 | -15.39134 | 109 ft | 133 kts | 23° |
| 2026-05-05 15:25 | 27.92870 | -15.38798 | 59 ft | 88 kts | 22° |
| 2026-05-05 15:25 | 27.93171 | -15.38665 | 61 ft | 18 kts | 18° |
| 2026-05-05 15:26 | 27.93286 | -15.38612 | 58 ft | 18 kts | 20° |
| 2026-05-05 15:26 | 27.93483 | -15.38529 | 57 ft | 54 kts | 21° |
| 2026-05-05 15:26 | 27.93699 | -15.38439 | 57 ft | 22 kts | 14° |
| 2026-05-05 15:26 | 27.93846 | -15.38426 | 63 ft | 20 kts | 355° |
| 2026-05-05 15:27 | 27.93970 | -15.38446 | 70 ft | 11 kts | 351° |
| 2026-05-05 15:27 | 27.93981 | -15.38448 | 71 ft | 0 kts | 350° |
| 2026-05-05 15:28 | 27.93996 | -15.38452 | 71 ft | 5 kts | 346° |
| 2026-05-05 15:29 | 27.94020 | -15.38465 | 66 ft | 2 kts | 326° |
| 2026-05-05 15:29 | 27.94035 | -15.38480 | 62 ft | 6 kts | 316° |
| 2026-05-05 15:29 | 27.94053 | -15.38516 | 64 ft | 5 kts | 291° |
| 2026-05-05 15:29 | 27.94073 | -15.38571 | 66 ft | 7 kts | 293° |
| 2026-05-05 15:30 | 27.94084 | -15.38600 | 72 ft | 2 kts | 293° |
| 2026-05-05 15:30 | 27.94092 | -15.38623 | 85 ft | 2 kts | 290° |
| 2026-05-05 15:30 | 27.94096 | -15.38633 | 85 ft | 3 kts | 293° |
| 2026-05-05 15:30 | 27.94109 | -15.38667 | 86 ft | 4 kts | 291° |
| 2026-05-05 15:31 | 27.94103 | -15.38689 | 86 ft | 6 kts | 239° |
| 2026-05-05 15:31 | 27.94107 | -15.38724 | 86 ft | 0 kts | 291° |